sensor_id;sensor_type;location;lat;lon;timestamp;temperature;humidity
51863;DHT22;37900;52.996;6.278;2023-11-18T00:00:10;16.30;97.70
51863;DHT22;37900;52.996;6.278;2023-11-18T00:02:39;16.40;97.70
51863;DHT22;37900;52.996;6.278;2023-11-18T00:05:07;16.40;97.70
51863;DHT22;37900;52.996;6.278;2023-11-18T00:07:33;16.30;97.70
51863;DHT22;37900;52.996;6.278;2023-11-18T00:09:59;16.30;97.70
51863;DHT22;37900;52.996;6.278;2023-11-18T00:12:24;16.40;97.70
51863;DHT22;37900;52.996;6.278;2023-11-18T00:14:50;16.40;97.70
51863;DHT22;37900;52.996;6.278;2023-11-18T00:17:16;16.30;97.70
51863;DHT22;37900;52.996;6.278;2023-11-18T00:19:41;15.80;97.50
51863;DHT22;37900;52.996;6.278;2023-11-18T00:22:10;16.30;97.60
51863;DHT22;37900;52.996;6.278;2023-11-18T00:24:37;16.30;97.60
51863;DHT22;37900;52.996;6.278;2023-11-18T00:27:03;16.30;97.60
51863;DHT22;37900;52.996;6.278;2023-11-18T00:29:35;16.30;97.60
51863;DHT22;37900;52.996;6.278;2023-11-18T00:32:00;16.30;97.60
51863;DHT22;37900;52.996;6.278;2023-11-18T00:34:26;16.30;97.50
51863;DHT22;37900;52.996;6.278;2023-11-18T00:36:53;16.30;97.50
51863;DHT22;37900;52.996;6.278;2023-11-18T00:39:19;16.30;97.50
51863;DHT22;37900;52.996;6.278;2023-11-18T00:41:45;16.30;97.50
51863;DHT22;37900;52.996;6.278;2023-11-18T00:44:11;16.30;97.50
51863;DHT22;37900;52.996;6.278;2023-11-18T00:46:38;16.30;97.40
51863;DHT22;37900;52.996;6.278;2023-11-18T00:49:04;16.30;97.40
51863;DHT22;37900;52.996;6.278;2023-11-18T00:51:30;16.30;97.40
51863;DHT22;37900;52.996;6.278;2023-11-18T00:53:56;16.30;97.40
51863;DHT22;37900;52.996;6.278;2023-11-18T00:56:22;16.20;97.30
51863;DHT22;37900;52.996;6.278;2023-11-18T00:58:48;16.20;97.30
51863;DHT22;37900;52.996;6.278;2023-11-18T01:01:13;16.20;97.30
51863;DHT22;37900;52.996;6.278;2023-11-18T01:03:46;16.20;97.20
51863;DHT22;37900;52.996;6.278;2023-11-18T01:06:12;16.20;97.20
51863;DHT22;37900;52.996;6.278;2023-11-18T01:08:37;16.20;97.20
51863;DHT22;37900;52.996;6.278;2023-11-18T01:11:03;16.20;97.10
51863;DHT22;37900;52.996;6.278;2023-11-18T01:13:32;16.20;97.10
51863;DHT22;37900;52.996;6.278;2023-11-18T01:15:57;15.90;97.00
51863;DHT22;37900;52.996;6.278;2023-11-18T01:18:23;16.10;97.00
51863;DHT22;37900;52.996;6.278;2023-11-18T01:20:49;16.10;97.00
51863;DHT22;37900;52.996;6.278;2023-11-18T01:23:15;16.10;97.00
51863;DHT22;37900;52.996;6.278;2023-11-18T01:25:40;16.10;97.00
51863;DHT22;37900;52.996;6.278;2023-11-18T01:28:06;16.10;97.00
51863;DHT22;37900;52.996;6.278;2023-11-18T01:30:32;16.10;96.90
51863;DHT22;37900;52.996;6.278;2023-11-18T01:32:58;16.10;96.90
51863;DHT22;37900;52.996;6.278;2023-11-18T01:35:29;16.10;96.80
51863;DHT22;37900;52.996;6.278;2023-11-18T01:37:54;16.10;96.80
51863;DHT22;37900;52.996;6.278;2023-11-18T01:40:20;16.00;96.80
51863;DHT22;37900;52.996;6.278;2023-11-18T01:42:46;16.00;96.80
51863;DHT22;37900;52.996;6.278;2023-11-18T01:45:12;16.10;96.80
51863;DHT22;37900;52.996;6.278;2023-11-18T01:47:40;16.00;96.70
51863;DHT22;37900;52.996;6.278;2023-11-18T01:50:06;16.00;96.70
51863;DHT22;37900;52.996;6.278;2023-11-18T01:52:32;16.00;96.70
51863;DHT22;37900;52.996;6.278;2023-11-18T01:54:58;16.00;96.70
51863;DHT22;37900;52.996;6.278;2023-11-18T01:57:24;16.00;96.70
51863;DHT22;37900;52.996;6.278;2023-11-18T01:59:55;16.00;96.60
51863;DHT22;37900;52.996;6.278;2023-11-18T02:02:21;16.00;96.60
51863;DHT22;37900;52.996;6.278;2023-11-18T02:04:46;16.00;96.60
51863;DHT22;37900;52.996;6.278;2023-11-18T02:07:12;16.00;96.60
51863;DHT22;37900;52.996;6.278;2023-11-18T02:09:43;16.00;96.50
51863;DHT22;37900;52.996;6.278;2023-11-18T02:14:55;16.00;96.50
51863;DHT22;37900;52.996;6.278;2023-11-18T02:17:23;15.90;96.40
51863;DHT22;37900;52.996;6.278;2023-11-18T02:19:50;15.90;96.40
51863;DHT22;37900;52.996;6.278;2023-11-18T02:22:17;15.90;96.40
51863;DHT22;37900;52.996;6.278;2023-11-18T02:24:43;15.90;96.40
51863;DHT22;37900;52.996;6.278;2023-11-18T02:27:09;15.90;96.40
51863;DHT22;37900;52.996;6.278;2023-11-18T02:29:41;15.90;96.30
51863;DHT22;37900;52.996;6.278;2023-11-18T02:32:15;15.90;96.40
51863;DHT22;37900;52.996;6.278;2023-11-18T02:34:48;15.90;96.30
51863;DHT22;37900;52.996;6.278;2023-11-18T02:37:14;15.90;96.30
51863;DHT22;37900;52.996;6.278;2023-11-18T02:39:42;15.90;96.30
51863;DHT22;37900;52.996;6.278;2023-11-18T02:42:08;15.90;96.30
51863;DHT22;37900;52.996;6.278;2023-11-18T02:44:35;15.80;96.20
51863;DHT22;37900;52.996;6.278;2023-11-18T02:47:02;15.80;96.20
51863;DHT22;37900;52.996;6.278;2023-11-18T02:49:29;15.80;96.20
51863;DHT22;37900;52.996;6.278;2023-11-18T02:51:54;15.80;96.20
51863;DHT22;37900;52.996;6.278;2023-11-18T02:54:20;15.80;96.10
51863;DHT22;37900;52.996;6.278;2023-11-18T02:56:46;15.80;96.10
51863;DHT22;37900;52.996;6.278;2023-11-18T02:59:11;15.80;96.10
51863;DHT22;37900;52.996;6.278;2023-11-18T03:01:38;15.80;96.10
51863;DHT22;37900;52.996;6.278;2023-11-18T03:04:06;15.80;96.10
51863;DHT22;37900;52.996;6.278;2023-11-18T03:06:33;15.80;96.10
51863;DHT22;37900;52.996;6.278;2023-11-18T03:09:01;15.80;96.00
51863;DHT22;37900;52.996;6.278;2023-11-18T03:11:26;15.80;96.00
51863;DHT22;37900;52.996;6.278;2023-11-18T03:13:55;15.80;96.00
51863;DHT22;37900;52.996;6.278;2023-11-18T03:16:22;15.70;96.00
51863;DHT22;37900;52.996;6.278;2023-11-18T03:18:47;15.80;96.00
51863;DHT22;37900;52.996;6.278;2023-11-18T03:21:13;15.80;95.90
51863;DHT22;37900;52.996;6.278;2023-11-18T03:23:39;15.70;95.90
51863;DHT22;37900;52.996;6.278;2023-11-18T03:26:06;15.70;95.90
51863;DHT22;37900;52.996;6.278;2023-11-18T03:28:32;15.70;95.90
51863;DHT22;37900;52.996;6.278;2023-11-18T03:30:57;15.70;95.80
51863;DHT22;37900;52.996;6.278;2023-11-18T03:33:23;15.80;95.90
51863;DHT22;37900;52.996;6.278;2023-11-18T03:35:51;15.70;95.80
51863;DHT22;37900;52.996;6.278;2023-11-18T03:38:17;15.70;95.80
51863;DHT22;37900;52.996;6.278;2023-11-18T03:40:42;15.70;95.80
51863;DHT22;37900;52.996;6.278;2023-11-18T03:43:10;15.70;95.70
51863;DHT22;37900;52.996;6.278;2023-11-18T03:45:39;15.70;95.70
51863;DHT22;37900;52.996;6.278;2023-11-18T03:48:05;15.70;95.70
51863;DHT22;37900;52.996;6.278;2023-11-18T03:50:32;15.70;95.70
51863;DHT22;37900;52.996;6.278;2023-11-18T03:52:57;15.70;95.70
51863;DHT22;37900;52.996;6.278;2023-11-18T03:55:24;15.70;95.60
51863;DHT22;37900;52.996;6.278;2023-11-18T03:57:51;15.70;95.60
51863;DHT22;37900;52.996;6.278;2023-11-18T04:00:17;15.70;95.60
51863;DHT22;37900;52.996;6.278;2023-11-18T04:02:43;15.60;95.50
51863;DHT22;37900;52.996;6.278;2023-11-18T04:05:11;15.60;95.60
51863;DHT22;37900;52.996;6.278;2023-11-18T04:07:37;15.60;95.50
51863;DHT22;37900;52.996;6.278;2023-11-18T04:10:03;15.60;95.50
51863;DHT22;37900;52.996;6.278;2023-11-18T04:12:32;15.60;95.50
51863;DHT22;37900;52.996;6.278;2023-11-18T04:14:57;15.60;95.50
51863;DHT22;37900;52.996;6.278;2023-11-18T04:17:23;15.60;95.50
51863;DHT22;37900;52.996;6.278;2023-11-18T04:19:49;15.60;95.40
51863;DHT22;37900;52.996;6.278;2023-11-18T04:22:14;15.60;95.40
51863;DHT22;37900;52.996;6.278;2023-11-18T04:24:40;15.60;95.40
51863;DHT22;37900;52.996;6.278;2023-11-18T04:27:06;15.60;95.40
51863;DHT22;37900;52.996;6.278;2023-11-18T04:29:31;15.60;95.40
51863;DHT22;37900;52.996;6.278;2023-11-18T04:31:57;15.60;95.30
51863;DHT22;37900;52.996;6.278;2023-11-18T04:34:22;15.60;95.30
51863;DHT22;37900;52.996;6.278;2023-11-18T04:36:48;15.60;95.30
51863;DHT22;37900;52.996;6.278;2023-11-18T04:39:14;15.60;95.30
51863;DHT22;37900;52.996;6.278;2023-11-18T04:41:41;15.60;95.30
51863;DHT22;37900;52.996;6.278;2023-11-18T04:44:06;15.60;95.30
51863;DHT22;37900;52.996;6.278;2023-11-18T04:46:32;15.60;95.30
51863;DHT22;37900;52.996;6.278;2023-11-18T04:48:58;15.50;95.20
51863;DHT22;37900;52.996;6.278;2023-11-18T04:51:24;15.60;95.50
51863;DHT22;37900;52.996;6.278;2023-11-18T04:53:50;15.50;95.30
51863;DHT22;37900;52.996;6.278;2023-11-18T04:56:16;15.50;95.20
51863;DHT22;37900;52.996;6.278;2023-11-18T04:58:43;15.50;95.20
51863;DHT22;37900;52.996;6.278;2023-11-18T05:01:11;15.50;95.10
51863;DHT22;37900;52.996;6.278;2023-11-18T05:03:38;15.50;95.10
51863;DHT22;37900;52.996;6.278;2023-11-18T05:06:03;15.50;95.10
51863;DHT22;37900;52.996;6.278;2023-11-18T05:08:29;15.50;95.10
51863;DHT22;37900;52.996;6.278;2023-11-18T05:10:56;15.50;95.10
51863;DHT22;37900;52.996;6.278;2023-11-18T05:13:23;15.50;95.10
51863;DHT22;37900;52.996;6.278;2023-11-18T05:15:48;15.50;95.10
51863;DHT22;37900;52.996;6.278;2023-11-18T05:18:15;15.50;95.10
51863;DHT22;37900;52.996;6.278;2023-11-18T05:20:41;15.50;95.00
51863;DHT22;37900;52.996;6.278;2023-11-18T05:23:07;15.50;95.00
51863;DHT22;37900;52.996;6.278;2023-11-18T05:25:44;15.50;95.00
51863;DHT22;37900;52.996;6.278;2023-11-18T05:28:09;15.50;95.00
51863;DHT22;37900;52.996;6.278;2023-11-18T05:30:36;15.50;95.00
51863;DHT22;37900;52.996;6.278;2023-11-18T05:33:05;15.50;95.00
51863;DHT22;37900;52.996;6.278;2023-11-18T05:35:31;15.40;95.00
51863;DHT22;37900;52.996;6.278;2023-11-18T05:37:58;15.50;95.00
51863;DHT22;37900;52.996;6.278;2023-11-18T05:40:24;15.40;94.90
51863;DHT22;37900;52.996;6.278;2023-11-18T05:42:50;15.40;94.90
51863;DHT22;37900;52.996;6.278;2023-11-18T05:45:17;15.40;94.90
51863;DHT22;37900;52.996;6.278;2023-11-18T05:47:56;15.40;94.90
51863;DHT22;37900;52.996;6.278;2023-11-18T05:50:22;15.40;94.90
51863;DHT22;37900;52.996;6.278;2023-11-18T05:52:50;15.40;94.90
51863;DHT22;37900;52.996;6.278;2023-11-18T05:55:16;15.40;94.90
51863;DHT22;37900;52.996;6.278;2023-11-18T05:57:41;15.40;94.80
51863;DHT22;37900;52.996;6.278;2023-11-18T06:00:12;15.40;94.80
51863;DHT22;37900;52.996;6.278;2023-11-18T06:02:43;15.40;95.10
51863;DHT22;37900;52.996;6.278;2023-11-18T06:05:09;15.40;94.80
51863;DHT22;37900;52.996;6.278;2023-11-18T06:07:35;15.40;94.80
51863;DHT22;37900;52.996;6.278;2023-11-18T06:10:01;15.40;94.80
51863;DHT22;37900;52.996;6.278;2023-11-18T06:12:31;15.40;94.80
51863;DHT22;37900;52.996;6.278;2023-11-18T06:14:57;15.40;94.80
51863;DHT22;37900;52.996;6.278;2023-11-18T06:17:22;15.30;94.70
51863;DHT22;37900;52.996;6.278;2023-11-18T06:19:49;15.30;94.70
51863;DHT22;37900;52.996;6.278;2023-11-18T06:22:14;15.30;94.70
51863;DHT22;37900;52.996;6.278;2023-11-18T06:24:40;15.30;94.70
51863;DHT22;37900;52.996;6.278;2023-11-18T06:27:06;15.30;94.70
51863;DHT22;37900;52.996;6.278;2023-11-18T06:29:34;15.30;94.70
51863;DHT22;37900;52.996;6.278;2023-11-18T06:32:00;15.30;94.70
51863;DHT22;37900;52.996;6.278;2023-11-18T06:34:25;15.30;94.90
51863;DHT22;37900;52.996;6.278;2023-11-18T06:36:52;15.30;94.70
51863;DHT22;37900;52.996;6.278;2023-11-18T06:39:18;15.00;94.60
51863;DHT22;37900;52.996;6.278;2023-11-18T06:41:45;15.30;94.70
51863;DHT22;37900;52.996;6.278;2023-11-18T06:44:16;15.30;94.70
51863;DHT22;37900;52.996;6.278;2023-11-18T06:46:48;15.30;94.70
51863;DHT22;37900;52.996;6.278;2023-11-18T06:49:16;15.00;94.60
51863;DHT22;37900;52.996;6.278;2023-11-18T06:51:41;15.30;94.60
51863;DHT22;37900;52.996;6.278;2023-11-18T06:54:07;15.30;94.70
51863;DHT22;37900;52.996;6.278;2023-11-18T06:56:37;15.30;94.70
51863;DHT22;37900;52.996;6.278;2023-11-18T06:59:06;15.30;94.60
51863;DHT22;37900;52.996;6.278;2023-11-18T07:01:38;15.30;94.60
51863;DHT22;37900;52.996;6.278;2023-11-18T07:04:06;15.30;94.90
51863;DHT22;37900;52.996;6.278;2023-11-18T07:06:34;15.30;94.60
51863;DHT22;37900;52.996;6.278;2023-11-18T07:09:04;15.30;94.60
51863;DHT22;37900;52.996;6.278;2023-11-18T07:11:34;15.30;94.60
51863;DHT22;37900;52.996;6.278;2023-11-18T07:14:00;15.20;94.60
51863;DHT22;37900;52.996;6.278;2023-11-18T07:16:26;15.20;94.50
51863;DHT22;37900;52.996;6.278;2023-11-18T07:18:51;15.20;94.50
51863;DHT22;37900;52.996;6.278;2023-11-18T07:21:17;15.20;94.50
51863;DHT22;37900;52.996;6.278;2023-11-18T07:23:43;15.20;94.50
51863;DHT22;37900;52.996;6.278;2023-11-18T07:26:09;15.20;94.50
51863;DHT22;37900;52.996;6.278;2023-11-18T07:28:39;15.20;94.50
51863;DHT22;37900;52.996;6.278;2023-11-18T07:31:05;15.20;94.50
51863;DHT22;37900;52.996;6.278;2023-11-18T07:33:30;15.20;94.50
51863;DHT22;37900;52.996;6.278;2023-11-18T07:35:59;15.20;94.50
51863;DHT22;37900;52.996;6.278;2023-11-18T07:38:24;15.20;94.50
51863;DHT22;37900;52.996;6.278;2023-11-18T07:40:52;15.20;94.50
51863;DHT22;37900;52.996;6.278;2023-11-18T07:43:22;15.20;94.50
51863;DHT22;37900;52.996;6.278;2023-11-18T07:45:47;15.20;94.40
51863;DHT22;37900;52.996;6.278;2023-11-18T07:48:17;15.20;94.40
51863;DHT22;37900;52.996;6.278;2023-11-18T07:50:43;15.20;94.40
51863;DHT22;37900;52.996;6.278;2023-11-18T07:53:12;15.20;94.40
51863;DHT22;37900;52.996;6.278;2023-11-18T07:55:38;15.20;94.40
51863;DHT22;37900;52.996;6.278;2023-11-18T07:58:08;15.10;94.40
51863;DHT22;37900;52.996;6.278;2023-11-18T08:00:37;15.20;94.40
51863;DHT22;37900;52.996;6.278;2023-11-18T08:03:04;15.20;94.40
51863;DHT22;37900;52.996;6.278;2023-11-18T08:05:32;15.10;94.40
51863;DHT22;37900;52.996;6.278;2023-11-18T08:07:58;15.20;94.40
51863;DHT22;37900;52.996;6.278;2023-11-18T08:10:24;15.10;94.40
51863;DHT22;37900;52.996;6.278;2023-11-18T08:12:50;15.10;94.30
51863;DHT22;37900;52.996;6.278;2023-11-18T08:15:17;15.10;94.30
51863;DHT22;37900;52.996;6.278;2023-11-18T08:17:44;15.10;94.30
51863;DHT22;37900;52.996;6.278;2023-11-18T08:20:09;15.10;94.30
51863;DHT22;37900;52.996;6.278;2023-11-18T08:22:41;15.10;94.30
51863;DHT22;37900;52.996;6.278;2023-11-18T08:25:10;15.10;94.30
51863;DHT22;37900;52.996;6.278;2023-11-18T08:27:35;15.10;94.30
51863;DHT22;37900;52.996;6.278;2023-11-18T08:30:01;15.10;94.30
51863;DHT22;37900;52.996;6.278;2023-11-18T08:32:31;15.10;94.30
51863;DHT22;37900;52.996;6.278;2023-11-18T08:34:57;15.10;94.30
51863;DHT22;37900;52.996;6.278;2023-11-18T08:37:23;15.10;94.30
51863;DHT22;37900;52.996;6.278;2023-11-18T08:39:48;15.10;94.30
51863;DHT22;37900;52.996;6.278;2023-11-18T08:42:14;15.10;94.30
51863;DHT22;37900;52.996;6.278;2023-11-18T08:44:40;15.10;94.30
51863;DHT22;37900;52.996;6.278;2023-11-18T08:47:05;15.10;94.30
51863;DHT22;37900;52.996;6.278;2023-11-18T08:49:34;15.10;94.30
51863;DHT22;37900;52.996;6.278;2023-11-18T08:51:59;15.10;94.30
51863;DHT22;37900;52.996;6.278;2023-11-18T08:54:25;15.10;94.40
51863;DHT22;37900;52.996;6.278;2023-11-18T08:57:02;15.10;94.50
51863;DHT22;37900;52.996;6.278;2023-11-18T08:59:28;15.10;94.70
51863;DHT22;37900;52.996;6.278;2023-11-18T09:01:54;15.10;94.80
51863;DHT22;37900;52.996;6.278;2023-11-18T09:04:24;15.10;95.10
51863;DHT22;37900;52.996;6.278;2023-11-18T09:06:50;15.10;94.90
51863;DHT22;37900;52.996;6.278;2023-11-18T09:09:20;15.10;95.00
51863;DHT22;37900;52.996;6.278;2023-11-18T09:11:52;15.20;95.10
51863;DHT22;37900;52.996;6.278;2023-11-18T09:14:18;15.20;95.20
51863;DHT22;37900;52.996;6.278;2023-11-18T09:16:44;15.20;95.30
51863;DHT22;37900;52.996;6.278;2023-11-18T09:19:10;15.20;95.40
51863;DHT22;37900;52.996;6.278;2023-11-18T09:21:36;15.20;95.40
51863;DHT22;37900;52.996;6.278;2023-11-18T09:24:01;15.20;95.50
51863;DHT22;37900;52.996;6.278;2023-11-18T09:26:33;15.20;95.50
51863;DHT22;37900;52.996;6.278;2023-11-18T09:29:00;15.20;95.60
51863;DHT22;37900;52.996;6.278;2023-11-18T09:31:27;15.30;95.60
51863;DHT22;37900;52.996;6.278;2023-11-18T09:33:52;15.20;95.60
51863;DHT22;37900;52.996;6.278;2023-11-18T09:36:18;15.20;95.70
51863;DHT22;37900;52.996;6.278;2023-11-18T09:38:44;15.30;95.70
51863;DHT22;37900;52.996;6.278;2023-11-18T09:41:13;15.20;95.70
51863;DHT22;37900;52.996;6.278;2023-11-18T09:46:11;15.30;95.80
51863;DHT22;37900;52.996;6.278;2023-11-18T09:51:08;15.30;95.80
51863;DHT22;37900;52.996;6.278;2023-11-18T09:53:37;15.30;95.90
51863;DHT22;37900;52.996;6.278;2023-11-18T09:56:17;15.30;95.90
51863;DHT22;37900;52.996;6.278;2023-11-18T09:58:57;15.30;96.00
51863;DHT22;37900;52.996;6.278;2023-11-18T10:01:28;15.30;96.10
51863;DHT22;37900;52.996;6.278;2023-11-18T10:03:58;15.30;96.00
51863;DHT22;37900;52.996;6.278;2023-11-18T10:06:24;15.30;96.00
51863;DHT22;37900;52.996;6.278;2023-11-18T10:08:51;15.30;96.00
51863;DHT22;37900;52.996;6.278;2023-11-18T10:11:18;15.30;96.00
51863;DHT22;37900;52.996;6.278;2023-11-18T10:13:48;15.30;96.00
51863;DHT22;37900;52.996;6.278;2023-11-18T10:16:14;15.30;96.00
51863;DHT22;37900;52.996;6.278;2023-11-18T10:18:40;15.30;96.10
51863;DHT22;37900;52.996;6.278;2023-11-18T10:21:14;15.30;96.20
51863;DHT22;37900;52.996;6.278;2023-11-18T10:23:59;15.30;96.40
51863;DHT22;37900;52.996;6.278;2023-11-18T10:26:27;15.30;96.20
51863;DHT22;37900;52.996;6.278;2023-11-18T10:28:55;15.30;96.30
51863;DHT22;37900;52.996;6.278;2023-11-18T10:31:28;15.30;96.30
51863;DHT22;37900;52.996;6.278;2023-11-18T10:33:54;15.30;96.30
51863;DHT22;37900;52.996;6.278;2023-11-18T10:36:20;15.30;96.30
51863;DHT22;37900;52.996;6.278;2023-11-18T10:38:50;15.30;96.30
51863;DHT22;37900;52.996;6.278;2023-11-18T10:41:21;15.30;96.20
51863;DHT22;37900;52.996;6.278;2023-11-18T10:43:46;15.30;96.20
51863;DHT22;37900;52.996;6.278;2023-11-18T10:46:14;15.30;96.20
51863;DHT22;37900;52.996;6.278;2023-11-18T10:48:44;15.30;96.20
51863;DHT22;37900;52.996;6.278;2023-11-18T10:51:10;15.30;96.20
51863;DHT22;37900;52.996;6.278;2023-11-18T10:53:39;15.30;96.20
51863;DHT22;37900;52.996;6.278;2023-11-18T10:56:16;15.30;96.20
51863;DHT22;37900;52.996;6.278;2023-11-18T10:58:41;15.30;96.20
51863;DHT22;37900;52.996;6.278;2023-11-18T11:01:07;15.20;96.20
51863;DHT22;37900;52.996;6.278;2023-11-18T11:03:52;15.30;96.30
51863;DHT22;37900;52.996;6.278;2023-11-18T11:06:17;15.20;96.20
51863;DHT22;37900;52.996;6.278;2023-11-18T11:08:43;15.30;96.60
51863;DHT22;37900;52.996;6.278;2023-11-18T11:11:09;15.30;96.40
51863;DHT22;37900;52.996;6.278;2023-11-18T11:13:42;15.30;96.40
51863;DHT22;37900;52.996;6.278;2023-11-18T11:16:08;15.30;96.50
51863;DHT22;37900;52.996;6.278;2023-11-18T11:18:37;15.20;96.50
51863;DHT22;37900;52.996;6.278;2023-11-18T11:21:14;15.30;96.60
51863;DHT22;37900;52.996;6.278;2023-11-18T11:26:33;15.30;96.60
51863;DHT22;37900;52.996;6.278;2023-11-18T11:29:20;15.30;96.60
51863;DHT22;37900;52.996;6.278;2023-11-18T11:31:48;15.30;96.60
51863;DHT22;37900;52.996;6.278;2023-11-18T11:34:17;15.30;96.60
51863;DHT22;37900;52.996;6.278;2023-11-18T11:36:49;15.30;96.60
51863;DHT22;37900;52.996;6.278;2023-11-18T11:39:16;15.30;96.60
51863;DHT22;37900;52.996;6.278;2023-11-18T11:41:46;15.30;96.60
51863;DHT22;37900;52.996;6.278;2023-11-18T11:44:13;15.30;96.60
51863;DHT22;37900;52.996;6.278;2023-11-18T11:46:38;15.30;96.60
51863;DHT22;37900;52.996;6.278;2023-11-18T11:49:08;15.30;96.60
51863;DHT22;37900;52.996;6.278;2023-11-18T11:51:57;15.30;96.60
51863;DHT22;37900;52.996;6.278;2023-11-18T11:54:27;15.30;96.60
51863;DHT22;37900;52.996;6.278;2023-11-18T11:56:56;15.30;96.60
51863;DHT22;37900;52.996;6.278;2023-11-18T11:59:34;15.30;96.60
51863;DHT22;37900;52.996;6.278;2023-11-18T12:02:02;15.30;96.60
51863;DHT22;37900;52.996;6.278;2023-11-18T12:04:33;15.30;96.60
51863;DHT22;37900;52.996;6.278;2023-11-18T12:06:59;15.30;96.60
51863;DHT22;37900;52.996;6.278;2023-11-18T12:09:31;15.30;96.50
51863;DHT22;37900;52.996;6.278;2023-11-18T12:12:03;15.30;96.50
51863;DHT22;37900;52.996;6.278;2023-11-18T12:14:30;15.30;96.50
51863;DHT22;37900;52.996;6.278;2023-11-18T12:17:05;15.30;96.50
51863;DHT22;37900;52.996;6.278;2023-11-18T12:19:36;15.30;96.50
51863;DHT22;37900;52.996;6.278;2023-11-18T12:22:10;15.30;96.50
51863;DHT22;37900;52.996;6.278;2023-11-18T12:30:03;15.30;96.50
51863;DHT22;37900;52.996;6.278;2023-11-18T12:35:19;15.30;96.50
51863;DHT22;37900;52.996;6.278;2023-11-18T12:43:15;15.30;96.50
51863;DHT22;37900;52.996;6.278;2023-11-18T12:48:20;15.30;96.40
51863;DHT22;37900;52.996;6.278;2023-11-18T12:50:55;15.30;96.40
51863;DHT22;37900;52.996;6.278;2023-11-18T12:53:21;15.30;96.40
51863;DHT22;37900;52.996;6.278;2023-11-18T12:55:49;15.30;96.40
51863;DHT22;37900;52.996;6.278;2023-11-18T12:58:16;15.30;96.40
51863;DHT22;37900;52.996;6.278;2023-11-18T13:00:43;15.30;96.40
51863;DHT22;37900;52.996;6.278;2023-11-18T13:03:10;15.30;96.40
51863;DHT22;37900;52.996;6.278;2023-11-18T13:05:36;15.30;96.60
51863;DHT22;37900;52.996;6.278;2023-11-18T13:08:03;15.30;96.40
51863;DHT22;37900;52.996;6.278;2023-11-18T13:10:28;15.30;96.60
51863;DHT22;37900;52.996;6.278;2023-11-18T13:12:54;15.30;96.40
51863;DHT22;37900;52.996;6.278;2023-11-18T13:15:20;15.30;96.40
51863;DHT22;37900;52.996;6.278;2023-11-18T13:17:56;15.30;96.40
51863;DHT22;37900;52.996;6.278;2023-11-18T13:20:22;15.30;96.40
51863;DHT22;37900;52.996;6.278;2023-11-18T13:22:50;15.30;96.40
51863;DHT22;37900;52.996;6.278;2023-11-18T13:25:15;15.30;96.40
51863;DHT22;37900;52.996;6.278;2023-11-18T13:27:42;15.30;96.40
51863;DHT22;37900;52.996;6.278;2023-11-18T13:30:08;15.30;96.40
51863;DHT22;37900;52.996;6.278;2023-11-18T13:32:41;15.30;96.40
51863;DHT22;37900;52.996;6.278;2023-11-18T13:35:07;15.30;96.40
51863;DHT22;37900;52.996;6.278;2023-11-18T13:37:33;15.30;96.40
51863;DHT22;37900;52.996;6.278;2023-11-18T13:39:59;15.30;96.40
51863;DHT22;37900;52.996;6.278;2023-11-18T13:42:25;15.30;96.40
51863;DHT22;37900;52.996;6.278;2023-11-18T13:45:02;15.30;96.40
51863;DHT22;37900;52.996;6.278;2023-11-18T13:47:34;15.20;96.30
51863;DHT22;37900;52.996;6.278;2023-11-18T13:50:05;15.20;96.30
51863;DHT22;37900;52.996;6.278;2023-11-18T13:52:32;15.20;96.40
51863;DHT22;37900;52.996;6.278;2023-11-18T13:54:58;15.20;96.30
51863;DHT22;37900;52.996;6.278;2023-11-18T13:57:25;15.20;96.30
51863;DHT22;37900;52.996;6.278;2023-11-18T13:59:50;15.30;96.30
51863;DHT22;37900;52.996;6.278;2023-11-18T14:02:16;15.20;96.30
51863;DHT22;37900;52.996;6.278;2023-11-18T14:04:42;15.30;96.30
51863;DHT22;37900;52.996;6.278;2023-11-18T14:07:14;15.20;96.30
51863;DHT22;37900;52.996;6.278;2023-11-18T14:09:41;15.20;96.30
51863;DHT22;37900;52.996;6.278;2023-11-18T14:12:07;15.20;96.30
51863;DHT22;37900;52.996;6.278;2023-11-18T14:14:33;15.20;96.30
51863;DHT22;37900;52.996;6.278;2023-11-18T14:16:59;15.20;96.30
51863;DHT22;37900;52.996;6.278;2023-11-18T14:19:25;15.20;96.30
51863;DHT22;37900;52.996;6.278;2023-11-18T14:21:51;15.20;96.20
51863;DHT22;37900;52.996;6.278;2023-11-18T14:24:17;15.20;96.20
51863;DHT22;37900;52.996;6.278;2023-11-18T14:26:46;15.20;96.20
51863;DHT22;37900;52.996;6.278;2023-11-18T14:29:12;15.20;96.20
51863;DHT22;37900;52.996;6.278;2023-11-18T14:31:37;15.20;96.20
51863;DHT22;37900;52.996;6.278;2023-11-18T14:34:03;15.20;96.20
51863;DHT22;37900;52.996;6.278;2023-11-18T14:36:29;15.20;96.20
51863;DHT22;37900;52.996;6.278;2023-11-18T14:38:55;15.20;96.20
51863;DHT22;37900;52.996;6.278;2023-11-18T14:41:21;15.20;96.20
51863;DHT22;37900;52.996;6.278;2023-11-18T14:43:50;15.20;96.20
51863;DHT22;37900;52.996;6.278;2023-11-18T14:46:16;15.20;96.20
51863;DHT22;37900;52.996;6.278;2023-11-18T14:48:42;15.20;96.20
51863;DHT22;37900;52.996;6.278;2023-11-18T14:51:08;15.20;96.20
51863;DHT22;37900;52.996;6.278;2023-11-18T14:53:33;15.20;96.20
51863;DHT22;37900;52.996;6.278;2023-11-18T14:55:59;15.20;96.20
51863;DHT22;37900;52.996;6.278;2023-11-18T14:58:25;15.20;96.20
51863;DHT22;37900;52.996;6.278;2023-11-18T15:00:51;15.20;96.20
51863;DHT22;37900;52.996;6.278;2023-11-18T15:03:17;15.20;96.20
51863;DHT22;37900;52.996;6.278;2023-11-18T15:05:42;15.20;96.10
51863;DHT22;37900;52.996;6.278;2023-11-18T15:08:09;15.20;96.10
51863;DHT22;37900;52.996;6.278;2023-11-18T15:10:35;15.20;96.10
51863;DHT22;37900;52.996;6.278;2023-11-18T15:13:02;15.20;96.10
51863;DHT22;37900;52.996;6.278;2023-11-18T15:15:28;15.20;96.10
51863;DHT22;37900;52.996;6.278;2023-11-18T15:18:06;15.10;96.10
51863;DHT22;37900;52.996;6.278;2023-11-18T15:20:34;15.10;96.00
51863;DHT22;37900;52.996;6.278;2023-11-18T15:23:00;15.10;96.00
51863;DHT22;37900;52.996;6.278;2023-11-18T15:25:26;15.10;96.00
51863;DHT22;37900;52.996;6.278;2023-11-18T15:27:52;15.10;96.00
51863;DHT22;37900;52.996;6.278;2023-11-18T15:30:18;15.10;96.00
51863;DHT22;37900;52.996;6.278;2023-11-18T15:32:44;15.10;96.10
51863;DHT22;37900;52.996;6.278;2023-11-18T15:35:10;15.20;96.10
51863;DHT22;37900;52.996;6.278;2023-11-18T15:37:39;15.20;96.20
51863;DHT22;37900;52.996;6.278;2023-11-18T15:40:07;15.20;96.20
51863;DHT22;37900;52.996;6.278;2023-11-18T15:42:37;15.20;96.30
51863;DHT22;37900;52.996;6.278;2023-11-18T15:45:03;15.20;96.40
51863;DHT22;37900;52.996;6.278;2023-11-18T15:47:30;15.20;96.50
51863;DHT22;37900;52.996;6.278;2023-11-18T15:49:55;15.20;96.60
51863;DHT22;37900;52.996;6.278;2023-11-18T15:52:21;15.20;96.60
51863;DHT22;37900;52.996;6.278;2023-11-18T15:54:47;15.30;96.70
51863;DHT22;37900;52.996;6.278;2023-11-18T15:57:12;15.30;97.00